sensor_id;sensor_type;location;lat;lon;timestamp;P1;durP1;ratioP1;P2;durP2;ratioP2
291;SDS011;23311;48.776;9.162;2023-02-05T00:01:56;13.50;;;9.00;;
291;SDS011;23311;48.776;9.162;2023-02-05T00:04:24;13.40;;;9.87;;
291;SDS011;23311;48.776;9.162;2023-02-05T00:06:52;14.47;;;10.67;;
291;SDS011;23311;48.776;9.162;2023-02-05T00:09:21;15.50;;;10.17;;
291;SDS011;23311;48.776;9.162;2023-02-05T00:11:49;19.83;;;9.40;;
291;SDS011;23311;48.776;9.162;2023-02-05T00:14:17;12.57;;;8.30;;
291;SDS011;23311;48.776;9.162;2023-02-05T00:16:46;13.60;;;6.63;;
291;SDS011;23311;48.776;9.162;2023-02-05T00:19:14;9.80;;;7.37;;
291;SDS011;23311;48.776;9.162;2023-02-05T00:21:42;12.20;;;6.90;;
291;SDS011;23311;48.776;9.162;2023-02-05T00:24:10;8.80;;;6.60;;
291;SDS011;23311;48.776;9.162;2023-02-05T00:26:40;10.77;;;6.63;;
291;SDS011;23311;48.776;9.162;2023-02-05T00:29:08;8.60;;;5.80;;
291;SDS011;23311;48.776;9.162;2023-02-05T00:31:37;9.03;;;5.60;;
291;SDS011;23311;48.776;9.162;2023-02-05T00:34:05;13.90;;;6.97;;
291;SDS011;23311;48.776;9.162;2023-02-05T00:36:33;11.73;;;6.50;;
291;SDS011;23311;48.776;9.162;2023-02-05T00:39:01;13.23;;;7.37;;
291;SDS011;23311;48.776;9.162;2023-02-05T00:41:29;10.17;;;6.67;;
291;SDS011;23311;48.776;9.162;2023-02-05T00:43:59;12.60;;;7.50;;
291;SDS011;23311;48.776;9.162;2023-02-05T00:46:27;13.57;;;7.30;;
291;SDS011;23311;48.776;9.162;2023-02-05T00:48:55;13.40;;;6.80;;
291;SDS011;23311;48.776;9.162;2023-02-05T00:51:23;14.33;;;6.70;;
291;SDS011;23311;48.776;9.162;2023-02-05T00:53:51;9.70;;;7.57;;
291;SDS011;23311;48.776;9.162;2023-02-05T00:56:19;11.30;;;7.13;;
291;SDS011;23311;48.776;9.162;2023-02-05T00:58:47;17.73;;;9.37;;
291;SDS011;23311;48.776;9.162;2023-02-05T01:01:17;12.57;;;9.03;;
291;SDS011;23311;48.776;9.162;2023-02-05T01:03:45;13.60;;;9.77;;
291;SDS011;23311;48.776;9.162;2023-02-05T01:06:14;13.93;;;8.23;;
291;SDS011;23311;48.776;9.162;2023-02-05T01:08:45;12.40;;;8.93;;
291;SDS011;23311;48.776;9.162;2023-02-05T01:11:14;10.57;;;7.97;;
291;SDS011;23311;48.776;9.162;2023-02-05T01:13:42;12.03;;;8.53;;
291;SDS011;23311;48.776;9.162;2023-02-05T01:16:13;19.07;;;9.37;;
291;SDS011;23311;48.776;9.162;2023-02-05T01:18:43;14.30;;;7.97;;
291;SDS011;23311;48.776;9.162;2023-02-05T01:21:11;15.50;;;8.93;;
291;SDS011;23311;48.776;9.162;2023-02-05T01:23:39;15.50;;;9.30;;
291;SDS011;23311;48.776;9.162;2023-02-05T01:26:07;12.30;;;8.13;;
291;SDS011;23311;48.776;9.162;2023-02-05T01:28:35;16.43;;;10.00;;
291;SDS011;23311;48.776;9.162;2023-02-05T01:31:03;17.20;;;8.80;;
291;SDS011;23311;48.776;9.162;2023-02-05T01:33:32;13.80;;;8.97;;
291;SDS011;23311;48.776;9.162;2023-02-05T01:36:01;15.00;;;9.33;;
291;SDS011;23311;48.776;9.162;2023-02-05T01:38:29;14.60;;;8.50;;
291;SDS011;23311;48.776;9.162;2023-02-05T01:40:57;12.20;;;7.83;;
291;SDS011;23311;48.776;9.162;2023-02-05T01:43:25;14.00;;;9.50;;
291;SDS011;23311;48.776;9.162;2023-02-05T01:46:04;12.80;;;8.67;;
291;SDS011;23311;48.776;9.162;2023-02-05T01:48:40;19.40;;;9.90;;
291;SDS011;23311;48.776;9.162;2023-02-05T01:51:12;19.00;;;9.30;;
291;SDS011;23311;48.776;9.162;2023-02-05T01:53:42;15.13;;;8.83;;
291;SDS011;23311;48.776;9.162;2023-02-05T01:56:13;13.20;;;7.93;;
291;SDS011;23311;48.776;9.162;2023-02-05T01:58:45;18.10;;;8.60;;
291;SDS011;23311;48.776;9.162;2023-02-05T02:01:18;14.30;;;7.80;;
291;SDS011;23311;48.776;9.162;2023-02-05T02:03:46;17.40;;;8.13;;
291;SDS011;23311;48.776;9.162;2023-02-05T02:06:17;10.90;;;7.50;;
291;SDS011;23311;48.776;9.162;2023-02-05T02:08:45;12.60;;;6.13;;
291;SDS011;23311;48.776;9.162;2023-02-05T02:11:14;11.13;;;5.90;;
291;SDS011;23311;48.776;9.162;2023-02-05T02:13:45;9.50;;;5.87;;
291;SDS011;23311;48.776;9.162;2023-02-05T02:16:15;11.77;;;6.47;;
291;SDS011;23311;48.776;9.162;2023-02-05T02:18:43;11.73;;;7.50;;
291;SDS011;23311;48.776;9.162;2023-02-05T02:21:20;12.30;;;8.13;;
291;SDS011;23311;48.776;9.162;2023-02-05T02:24:05;11.23;;;6.97;;
291;SDS011;23311;48.776;9.162;2023-02-05T02:26:59;9.60;;;7.47;;
291;SDS011;23311;48.776;9.162;2023-02-05T02:29:53;6.60;;;5.60;;
291;SDS011;23311;48.776;9.162;2023-02-05T02:32:27;10.57;;;5.43;;
291;SDS011;23311;48.776;9.162;2023-02-05T02:35:00;9.70;;;5.87;;
291;SDS011;23311;48.776;9.162;2023-02-05T02:37:33;10.43;;;5.63;;
291;SDS011;23311;48.776;9.162;2023-02-05T02:40:09;8.37;;;5.47;;
291;SDS011;23311;48.776;9.162;2023-02-05T02:42:44;8.67;;;5.57;;
291;SDS011;23311;48.776;9.162;2023-02-05T02:45:15;10.10;;;6.27;;
291;SDS011;23311;48.776;9.162;2023-02-05T02:47:48;9.00;;;5.97;;
291;SDS011;23311;48.776;9.162;2023-02-05T02:50:20;9.17;;;5.90;;
291;SDS011;23311;48.776;9.162;2023-02-05T02:52:51;9.20;;;6.53;;
291;SDS011;23311;48.776;9.162;2023-02-05T02:55:21;8.20;;;6.70;;
291;SDS011;23311;48.776;9.162;2023-02-05T02:57:50;8.80;;;6.47;;
291;SDS011;23311;48.776;9.162;2023-02-05T03:00:23;14.80;;;7.07;;
291;SDS011;23311;48.776;9.162;2023-02-05T03:02:53;8.83;;;6.07;;
291;SDS011;23311;48.776;9.162;2023-02-05T03:05:27;10.50;;;7.00;;
291;SDS011;23311;48.776;9.162;2023-02-05T03:07:58;12.50;;;7.30;;
291;SDS011;23311;48.776;9.162;2023-02-05T03:10:31;10.53;;;6.57;;
291;SDS011;23311;48.776;9.162;2023-02-05T03:13:06;11.07;;;8.50;;
291;SDS011;23311;48.776;9.162;2023-02-05T03:15:36;10.87;;;5.90;;
291;SDS011;23311;48.776;9.162;2023-02-05T03:18:07;11.67;;;8.13;;
291;SDS011;23311;48.776;9.162;2023-02-05T03:20:35;11.93;;;8.00;;
291;SDS011;23311;48.776;9.162;2023-02-05T03:23:08;12.60;;;6.87;;
291;SDS011;23311;48.776;9.162;2023-02-05T03:25:36;9.03;;;6.50;;
291;SDS011;23311;48.776;9.162;2023-02-05T03:28:04;9.47;;;6.87;;
291;SDS011;23311;48.776;9.162;2023-02-05T03:30:34;15.50;;;7.23;;
291;SDS011;23311;48.776;9.162;2023-02-05T03:33:14;12.37;;;6.87;;
291;SDS011;23311;48.776;9.162;2023-02-05T03:35:54;11.50;;;7.07;;
291;SDS011;23311;48.776;9.162;2023-02-05T03:38:28;13.40;;;7.03;;
291;SDS011;23311;48.776;9.162;2023-02-05T03:41:10;13.30;;;6.87;;
291;SDS011;23311;48.776;9.162;2023-02-05T03:43:46;13.40;;;6.40;;
291;SDS011;23311;48.776;9.162;2023-02-05T03:46:25;11.90;;;6.40;;
291;SDS011;23311;48.776;9.162;2023-02-05T03:49:01;14.23;;;6.63;;
291;SDS011;23311;48.776;9.162;2023-02-05T03:51:35;10.10;;;6.70;;
291;SDS011;23311;48.776;9.162;2023-02-05T03:54:11;11.97;;;7.00;;
291;SDS011;23311;48.776;9.162;2023-02-05T03:56:47;9.40;;;6.17;;
291;SDS011;23311;48.776;9.162;2023-02-05T03:59:21;12.67;;;6.20;;
291;SDS011;23311;48.776;9.162;2023-02-05T04:01:52;9.27;;;6.73;;
291;SDS011;23311;48.776;9.162;2023-02-05T04:04:20;12.03;;;6.43;;
291;SDS011;23311;48.776;9.162;2023-02-05T04:06:50;11.17;;;6.70;;
291;SDS011;23311;48.776;9.162;2023-02-05T04:09:19;9.87;;;6.30;;
291;SDS011;23311;48.776;9.162;2023-02-05T04:11:47;9.90;;;6.13;;
291;SDS011;23311;48.776;9.162;2023-02-05T04:14:15;13.90;;;7.70;;
291;SDS011;23311;48.776;9.162;2023-02-05T04:16:43;11.50;;;6.23;;
291;SDS011;23311;48.776;9.162;2023-02-05T04:19:14;11.10;;;5.60;;
291;SDS011;23311;48.776;9.162;2023-02-05T04:21:42;9.40;;;6.07;;
291;SDS011;23311;48.776;9.162;2023-02-05T04:24:10;11.53;;;6.97;;
291;SDS011;23311;48.776;9.162;2023-02-05T04:26:38;8.67;;;6.30;;
291;SDS011;23311;48.776;9.162;2023-02-05T04:29:06;13.97;;;7.43;;
291;SDS011;23311;48.776;9.162;2023-02-05T04:31:34;13.83;;;6.73;;
291;SDS011;23311;48.776;9.162;2023-02-05T04:34:02;16.03;;;7.27;;
291;SDS011;23311;48.776;9.162;2023-02-05T04:36:32;9.13;;;6.60;;
291;SDS011;23311;48.776;9.162;2023-02-05T04:39:00;10.30;;;6.67;;
291;SDS011;23311;48.776;9.162;2023-02-05T04:41:28;14.63;;;6.83;;
291;SDS011;23311;48.776;9.162;2023-02-05T04:43:56;15.07;;;7.50;;
291;SDS011;23311;48.776;9.162;2023-02-05T04:46:24;12.20;;;6.93;;
291;SDS011;23311;48.776;9.162;2023-02-05T04:48:52;11.40;;;5.97;;
291;SDS011;23311;48.776;9.162;2023-02-05T04:51:20;10.13;;;6.23;;
291;SDS011;23311;48.776;9.162;2023-02-05T04:53:49;14.77;;;7.13;;
291;SDS011;23311;48.776;9.162;2023-02-05T04:56:17;11.60;;;6.00;;
291;SDS011;23311;48.776;9.162;2023-02-05T04:58:45;11.13;;;7.27;;
291;SDS011;23311;48.776;9.162;2023-02-05T05:01:15;13.57;;;7.07;;
291;SDS011;23311;48.776;9.162;2023-02-05T05:03:44;12.33;;;7.17;;
291;SDS011;23311;48.776;9.162;2023-02-05T05:06:13;13.90;;;6.53;;
291;SDS011;23311;48.776;9.162;2023-02-05T05:08:43;14.03;;;7.57;;
291;SDS011;23311;48.776;9.162;2023-02-05T05:11:13;16.70;;;7.00;;
291;SDS011;23311;48.776;9.162;2023-02-05T05:13:43;13.97;;;7.00;;
291;SDS011;23311;48.776;9.162;2023-02-05T05:16:12;12.60;;;7.10;;
291;SDS011;23311;48.776;9.162;2023-02-05T05:18:40;9.03;;;6.10;;
291;SDS011;23311;48.776;9.162;2023-02-05T05:21:08;12.60;;;6.03;;
291;SDS011;23311;48.776;9.162;2023-02-05T05:23:36;9.30;;;5.90;;
291;SDS011;23311;48.776;9.162;2023-02-05T05:26:05;10.43;;;6.03;;
291;SDS011;23311;48.776;9.162;2023-02-05T05:28:36;10.97;;;5.63;;
291;SDS011;23311;48.776;9.162;2023-02-05T05:31:05;13.90;;;6.27;;
291;SDS011;23311;48.776;9.162;2023-02-05T05:33:34;12.70;;;6.50;;
291;SDS011;23311;48.776;9.162;2023-02-05T05:36:02;8.53;;;5.90;;
291;SDS011;23311;48.776;9.162;2023-02-05T05:38:31;9.73;;;5.50;;
291;SDS011;23311;48.776;9.162;2023-02-05T05:40:59;11.33;;;6.47;;
291;SDS011;23311;48.776;9.162;2023-02-05T05:43:46;9.33;;;5.33;;
291;SDS011;23311;48.776;9.162;2023-02-05T05:46:15;9.93;;;6.17;;
291;SDS011;23311;48.776;9.162;2023-02-05T05:48:48;9.93;;;6.07;;
291;SDS011;23311;48.776;9.162;2023-02-05T05:51:17;11.27;;;7.47;;
291;SDS011;23311;48.776;9.162;2023-02-05T05:53:45;12.70;;;6.67;;
291;SDS011;23311;48.776;9.162;2023-02-05T05:56:13;8.50;;;5.70;;
291;SDS011;23311;48.776;9.162;2023-02-05T05:58:42;13.53;;;5.90;;
291;SDS011;23311;48.776;9.162;2023-02-05T06:01:13;6.40;;;5.90;;
291;SDS011;23311;48.776;9.162;2023-02-05T06:03:42;9.50;;;5.17;;
291;SDS011;23311;48.776;9.162;2023-02-05T06:06:10;9.37;;;5.37;;
291;SDS011;23311;48.776;9.162;2023-02-05T06:08:39;10.70;;;5.37;;
291;SDS011;23311;48.776;9.162;2023-02-05T06:11:07;12.40;;;5.53;;
291;SDS011;23311;48.776;9.162;2023-02-05T06:13:35;9.77;;;5.00;;
291;SDS011;23311;48.776;9.162;2023-02-05T06:16:04;10.27;;;7.07;;
291;SDS011;23311;48.776;9.162;2023-02-05T06:18:34;10.63;;;5.70;;
291;SDS011;23311;48.776;9.162;2023-02-05T06:21:03;7.80;;;6.20;;
291;SDS011;23311;48.776;9.162;2023-02-05T06:23:31;9.70;;;5.53;;
291;SDS011;23311;48.776;9.162;2023-02-05T06:26:00;9.13;;;5.60;;
291;SDS011;23311;48.776;9.162;2023-02-05T06:28:28;12.83;;;6.20;;
291;SDS011;23311;48.776;9.162;2023-02-05T06:30:56;8.40;;;6.77;;
291;SDS011;23311;48.776;9.162;2023-02-05T06:33:24;12.43;;;6.33;;
291;SDS011;23311;48.776;9.162;2023-02-05T06:35:53;11.30;;;5.73;;
291;SDS011;23311;48.776;9.162;2023-02-05T06:38:21;7.07;;;5.47;;
291;SDS011;23311;48.776;9.162;2023-02-05T06:40:49;8.73;;;6.17;;
291;SDS011;23311;48.776;9.162;2023-02-05T06:43:17;10.20;;;6.43;;
291;SDS011;23311;48.776;9.162;2023-02-05T06:45:45;9.70;;;5.67;;
291;SDS011;23311;48.776;9.162;2023-02-05T06:48:13;9.23;;;5.40;;
291;SDS011;23311;48.776;9.162;2023-02-05T06:50:41;10.77;;;5.03;;
291;SDS011;23311;48.776;9.162;2023-02-05T06:53:11;8.03;;;4.57;;
291;SDS011;23311;48.776;9.162;2023-02-05T06:55:39;11.17;;;7.67;;
291;SDS011;23311;48.776;9.162;2023-02-05T06:58:07;13.37;;;7.23;;
291;SDS011;23311;48.776;9.162;2023-02-05T07:00:35;8.70;;;5.73;;
291;SDS011;23311;48.776;9.162;2023-02-05T07:03:03;10.70;;;6.60;;
291;SDS011;23311;48.776;9.162;2023-02-05T07:05:32;13.10;;;6.00;;
291;SDS011;23311;48.776;9.162;2023-02-05T07:08:00;8.23;;;5.40;;
291;SDS011;23311;48.776;9.162;2023-02-05T07:10:33;9.03;;;5.70;;
291;SDS011;23311;48.776;9.162;2023-02-05T07:13:01;8.77;;;4.90;;
291;SDS011;23311;48.776;9.162;2023-02-05T07:18:06;12.10;;;5.53;;
291;SDS011;23311;48.776;9.162;2023-02-05T07:20:34;8.60;;;5.90;;
291;SDS011;23311;48.776;9.162;2023-02-05T07:23:02;12.07;;;5.33;;
291;SDS011;23311;48.776;9.162;2023-02-05T07:25:30;6.13;;;4.97;;
291;SDS011;23311;48.776;9.162;2023-02-05T07:28:03;10.30;;;6.40;;
291;SDS011;23311;48.776;9.162;2023-02-05T07:30:32;19.53;;;7.60;;
291;SDS011;23311;48.776;9.162;2023-02-05T07:33:00;12.00;;;5.43;;
291;SDS011;23311;48.776;9.162;2023-02-05T07:35:30;9.90;;;6.47;;
291;SDS011;23311;48.776;9.162;2023-02-05T07:37:59;6.60;;;5.97;;
291;SDS011;23311;48.776;9.162;2023-02-05T07:40:27;9.70;;;6.50;;
291;SDS011;23311;48.776;9.162;2023-02-05T07:42:57;9.30;;;6.20;;
291;SDS011;23311;48.776;9.162;2023-02-05T07:45:25;6.83;;;6.00;;
291;SDS011;23311;48.776;9.162;2023-02-05T07:47:53;9.37;;;5.33;;
291;SDS011;23311;48.776;9.162;2023-02-05T07:50:21;9.07;;;6.90;;
291;SDS011;23311;48.776;9.162;2023-02-05T07:52:49;11.13;;;5.73;;
291;SDS011;23311;48.776;9.162;2023-02-05T07:55:17;11.10;;;5.00;;
291;SDS011;23311;48.776;9.162;2023-02-05T07:57:45;9.60;;;5.50;;
291;SDS011;23311;48.776;9.162;2023-02-05T08:00:15;10.13;;;5.77;;
291;SDS011;23311;48.776;9.162;2023-02-05T08:02:43;9.10;;;5.00;;
291;SDS011;23311;48.776;9.162;2023-02-05T08:05:11;10.37;;;5.00;;
291;SDS011;23311;48.776;9.162;2023-02-05T08:07:39;9.70;;;5.30;;
291;SDS011;23311;48.776;9.162;2023-02-05T08:10:08;10.13;;;5.80;;
291;SDS011;23311;48.776;9.162;2023-02-05T08:12:38;9.33;;;5.40;;
291;SDS011;23311;48.776;9.162;2023-02-05T08:15:06;10.27;;;5.53;;
291;SDS011;23311;48.776;9.162;2023-02-05T08:17:36;5.90;;;5.27;;
291;SDS011;23311;48.776;9.162;2023-02-05T08:20:04;7.57;;;4.73;;
291;SDS011;23311;48.776;9.162;2023-02-05T08:22:33;12.30;;;6.00;;
291;SDS011;23311;48.776;9.162;2023-02-05T08:25:03;9.43;;;5.87;;
291;SDS011;23311;48.776;9.162;2023-02-05T08:27:32;9.10;;;5.93;;
291;SDS011;23311;48.776;9.162;2023-02-05T08:30:01;7.63;;;6.03;;
291;SDS011;23311;48.776;9.162;2023-02-05T08:32:29;12.40;;;7.43;;
291;SDS011;23311;48.776;9.162;2023-02-05T08:34:59;8.00;;;5.90;;
291;SDS011;23311;48.776;9.162;2023-02-05T08:37:27;12.90;;;5.80;;
291;SDS011;23311;48.776;9.162;2023-02-05T08:39:57;10.00;;;6.20;;
291;SDS011;23311;48.776;9.162;2023-02-05T08:42:25;9.30;;;6.03;;
291;SDS011;23311;48.776;9.162;2023-02-05T08:44:53;7.60;;;5.80;;
291;SDS011;23311;48.776;9.162;2023-02-05T08:47:24;12.70;;;5.33;;
291;SDS011;23311;48.776;9.162;2023-02-05T08:49:53;12.30;;;6.00;;
291;SDS011;23311;48.776;9.162;2023-02-05T08:52:22;8.13;;;5.57;;
291;SDS011;23311;48.776;9.162;2023-02-05T08:54:50;9.37;;;4.83;;
291;SDS011;23311;48.776;9.162;2023-02-05T08:57:18;16.50;;;5.97;;
291;SDS011;23311;48.776;9.162;2023-02-05T08:59:46;11.30;;;5.53;;
291;SDS011;23311;48.776;9.162;2023-02-05T09:02:14;7.90;;;5.37;;
291;SDS011;23311;48.776;9.162;2023-02-05T09:04:42;7.27;;;5.13;;
291;SDS011;23311;48.776;9.162;2023-02-05T09:07:10;11.03;;;5.43;;
291;SDS011;23311;48.776;9.162;2023-02-05T09:09:40;8.67;;;4.90;;
291;SDS011;23311;48.776;9.162;2023-02-05T09:12:08;7.10;;;6.00;;
291;SDS011;23311;48.776;9.162;2023-02-05T09:14:36;12.57;;;5.83;;
291;SDS011;23311;48.776;9.162;2023-02-05T09:17:06;11.20;;;5.93;;
291;SDS011;23311;48.776;9.162;2023-02-05T09:19:37;8.60;;;5.40;;
291;SDS011;23311;48.776;9.162;2023-02-05T09:22:06;8.80;;;5.57;;
291;SDS011;23311;48.776;9.162;2023-02-05T09:24:35;10.50;;;5.77;;
291;SDS011;23311;48.776;9.162;2023-02-05T09:27:05;12.20;;;6.30;;
291;SDS011;23311;48.776;9.162;2023-02-05T09:29:33;11.13;;;5.90;;
291;SDS011;23311;48.776;9.162;2023-02-05T09:32:01;10.13;;;7.10;;
291;SDS011;23311;48.776;9.162;2023-02-05T09:34:30;11.50;;;6.17;;
291;SDS011;23311;48.776;9.162;2023-02-05T09:36:58;11.27;;;5.70;;
291;SDS011;23311;48.776;9.162;2023-02-05T09:39:26;13.43;;;6.33;;
291;SDS011;23311;48.776;9.162;2023-02-05T09:42:18;12.73;;;7.60;;
291;SDS011;23311;48.776;9.162;2023-02-05T09:44:56;9.17;;;7.07;;
291;SDS011;23311;48.776;9.162;2023-02-05T09:47:40;10.33;;;6.77;;
291;SDS011;23311;48.776;9.162;2023-02-05T09:50:15;18.30;;;7.47;;
291;SDS011;23311;48.776;9.162;2023-02-05T09:52:51;11.97;;;7.53;;
291;SDS011;23311;48.776;9.162;2023-02-05T09:55:24;18.83;;;8.10;;
291;SDS011;23311;48.776;9.162;2023-02-05T09:57:57;7.80;;;6.30;;
291;SDS011;23311;48.776;9.162;2023-02-05T10:00:27;10.60;;;6.73;;
291;SDS011;23311;48.776;9.162;2023-02-05T10:03:00;12.13;;;7.00;;
291;SDS011;23311;48.776;9.162;2023-02-05T10:05:37;14.50;;;6.23;;
291;SDS011;23311;48.776;9.162;2023-02-05T10:08:13;8.70;;;6.70;;
291;SDS011;23311;48.776;9.162;2023-02-05T10:10:49;13.07;;;7.63;;
291;SDS011;23311;48.776;9.162;2023-02-05T10:13:32;9.83;;;6.10;;
291;SDS011;23311;48.776;9.162;2023-02-05T10:16:08;14.73;;;7.97;;
291;SDS011;23311;48.776;9.162;2023-02-05T10:18:56;10.80;;;7.60;;
291;SDS011;23311;48.776;9.162;2023-02-05T10:21:49;7.27;;;5.80;;
291;SDS011;23311;48.776;9.162;2023-02-05T10:24:44;9.97;;;6.20;;
291;SDS011;23311;48.776;9.162;2023-02-05T10:27:26;13.80;;;9.40;;
291;SDS011;23311;48.776;9.162;2023-02-05T10:30:05;10.90;;;8.60;;
291;SDS011;23311;48.776;9.162;2023-02-05T10:32:45;11.20;;;6.93;;
291;SDS011;23311;48.776;9.162;2023-02-05T10:35:22;15.03;;;7.57;;
291;SDS011;23311;48.776;9.162;2023-02-05T10:37:54;12.00;;;7.43;;
291;SDS011;23311;48.776;9.162;2023-02-05T10:40:24;10.43;;;7.10;;
291;SDS011;23311;48.776;9.162;2023-02-05T10:42:56;9.40;;;7.30;;
291;SDS011;23311;48.776;9.162;2023-02-05T10:45:30;11.57;;;6.10;;
291;SDS011;23311;48.776;9.162;2023-02-05T10:48:02;12.60;;;6.30;;
291;SDS011;23311;48.776;9.162;2023-02-05T10:50:46;9.80;;;7.00;;
291;SDS011;23311;48.776;9.162;2023-02-05T10:53:18;11.43;;;9.10;;
291;SDS011;23311;48.776;9.162;2023-02-05T10:55:48;13.10;;;8.70;;
291;SDS011;23311;48.776;9.162;2023-02-05T10:58:26;14.80;;;12.73;;
291;SDS011;23311;48.776;9.162;2023-02-05T11:01:13;11.70;;;7.13;;
291;SDS011;23311;48.776;9.162;2023-02-05T11:03:46;17.23;;;6.73;;
291;SDS011;23311;48.776;9.162;2023-02-05T11:06:21;9.43;;;6.27;;
291;SDS011;23311;48.776;9.162;2023-02-05T11:08:51;10.40;;;5.50;;
291;SDS011;23311;48.776;9.162;2023-02-05T11:11:20;13.80;;;6.00;;
291;SDS011;23311;48.776;9.162;2023-02-05T11:13:52;9.27;;;6.03;;
291;SDS011;23311;48.776;9.162;2023-02-05T11:16:23;12.23;;;6.30;;
291;SDS011;23311;48.776;9.162;2023-02-05T11:19:03;9.73;;;6.83;;
291;SDS011;23311;48.776;9.162;2023-02-05T11:21:45;10.13;;;6.10;;
291;SDS011;23311;48.776;9.162;2023-02-05T11:24:22;8.93;;;5.80;;
291;SDS011;23311;48.776;9.162;2023-02-05T11:29:55;8.20;;;5.60;;
291;SDS011;23311;48.776;9.162;2023-02-05T11:32:33;11.70;;;5.93;;
291;SDS011;23311;48.776;9.162;2023-02-05T11:35:15;12.43;;;5.97;;
291;SDS011;23311;48.776;9.162;2023-02-05T11:37:49;10.87;;;6.03;;
291;SDS011;23311;48.776;9.162;2023-02-05T11:40:26;11.80;;;5.40;;
291;SDS011;23311;48.776;9.162;2023-02-05T11:42:58;9.17;;;5.97;;
291;SDS011;23311;48.776;9.162;2023-02-05T11:45:30;9.27;;;5.93;;
291;SDS011;23311;48.776;9.162;2023-02-05T11:48:04;11.10;;;6.77;;
291;SDS011;23311;48.776;9.162;2023-02-05T11:50:34;8.83;;;5.63;;
291;SDS011;23311;48.776;9.162;2023-02-05T11:53:06;10.83;;;7.10;;
291;SDS011;23311;48.776;9.162;2023-02-05T11:55:41;7.37;;;5.50;;
291;SDS011;23311;48.776;9.162;2023-02-05T11:58:18;11.63;;;6.80;;
291;SDS011;23311;48.776;9.162;2023-02-05T12:01:02;8.57;;;6.27;;
291;SDS011;23311;48.776;9.162;2023-02-05T12:03:34;12.77;;;6.20;;
291;SDS011;23311;48.776;9.162;2023-02-05T12:06:06;8.10;;;6.63;;
291;SDS011;23311;48.776;9.162;2023-02-05T12:08:51;10.47;;;6.63;;
291;SDS011;23311;48.776;9.162;2023-02-05T12:11:33;11.27;;;7.33;;
291;SDS011;23311;48.776;9.162;2023-02-05T12:14:40;10.50;;;6.63;;
291;SDS011;23311;48.776;9.162;2023-02-05T12:17:20;22.37;;;7.30;;
291;SDS011;23311;48.776;9.162;2023-02-05T12:20:01;12.10;;;7.07;;
291;SDS011;23311;48.776;9.162;2023-02-05T12:22:58;9.87;;;7.27;;
291;SDS011;23311;48.776;9.162;2023-02-05T12:25:46;9.13;;;6.97;;
291;SDS011;23311;48.776;9.162;2023-02-05T12:28:31;10.13;;;7.20;;
291;SDS011;23311;48.776;9.162;2023-02-05T12:31:09;13.07;;;6.80;;
291;SDS011;23311;48.776;9.162;2023-02-05T12:33:53;14.97;;;7.50;;
291;SDS011;23311;48.776;9.162;2023-02-05T12:36:38;12.83;;;7.57;;
291;SDS011;23311;48.776;9.162;2023-02-05T12:39:28;10.83;;;7.40;;
291;SDS011;23311;48.776;9.162;2023-02-05T12:42:13;16.10;;;6.80;;
291;SDS011;23311;48.776;9.162;2023-02-05T12:45:13;13.17;;;7.97;;
291;SDS011;23311;48.776;9.162;2023-02-05T12:48:11;10.37;;;7.10;;
291;SDS011;23311;48.776;9.162;2023-02-05T12:51:01;9.23;;;6.33;;
291;SDS011;23311;48.776;9.162;2023-02-05T12:56:48;6.07;;;3.47;;
291;SDS011;23311;48.776;9.162;2023-02-05T12:59:30;5.33;;;3.27;;
291;SDS011;23311;48.776;9.162;2023-02-05T13:02:09;4.70;;;4.00;;
291;SDS011;23311;48.776;9.162;2023-02-05T13:04:45;5.37;;;3.93;;
291;SDS011;23311;48.776;9.162;2023-02-05T13:07:20;5.37;;;4.37;;
291;SDS011;23311;48.776;9.162;2023-02-05T13:09:58;6.20;;;4.50;;
291;SDS011;23311;48.776;9.162;2023-02-05T13:12:29;4.93;;;4.03;;
291;SDS011;23311;48.776;9.162;2023-02-05T13:15:04;5.80;;;4.20;;
291;SDS011;23311;48.776;9.162;2023-02-05T13:17:40;8.93;;;6.23;;
291;SDS011;23311;48.776;9.162;2023-02-05T13:20:18;7.40;;;5.03;;
291;SDS011;23311;48.776;9.162;2023-02-05T13:23:10;8.47;;;4.97;;
291;SDS011;23311;48.776;9.162;2023-02-05T13:25:59;4.83;;;3.47;;
291;SDS011;23311;48.776;9.162;2023-02-05T13:28:46;8.60;;;4.60;;
291;SDS011;23311;48.776;9.162;2023-02-05T13:31:19;7.10;;;3.87;;
291;SDS011;23311;48.776;9.162;2023-02-05T13:33:51;5.27;;;4.00;;
291;SDS011;23311;48.776;9.162;2023-02-05T13:36:29;7.27;;;4.27;;
291;SDS011;23311;48.776;9.162;2023-02-05T13:39:17;6.27;;;3.90;;
291;SDS011;23311;48.776;9.162;2023-02-05T13:42:27;10.23;;;4.20;;
291;SDS011;23311;48.776;9.162;2023-02-05T13:45:25;4.83;;;3.37;;
291;SDS011;23311;48.776;9.162;2023-02-05T13:48:15;4.47;;;3.50;;
291;SDS011;23311;48.776;9.162;2023-02-05T13:51:07;4.07;;;3.63;;
291;SDS011;23311;48.776;9.162;2023-02-05T13:57:02;4.20;;;3.63;;
291;SDS011;23311;48.776;9.162;2023-02-05T13:59:48;5.23;;;4.17;;
291;SDS011;23311;48.776;9.162;2023-02-05T14:02:24;5.23;;;4.27;;
291;SDS011;23311;48.776;9.162;2023-02-05T14:04:59;4.63;;;3.63;;
291;SDS011;23311;48.776;9.162;2023-02-05T14:07:29;3.57;;;3.17;;
291;SDS011;23311;48.776;9.162;2023-02-05T14:09:59;6.13;;;3.90;;
291;SDS011;23311;48.776;9.162;2023-02-05T14:12:29;4.93;;;3.07;;
291;SDS011;23311;48.776;9.162;2023-02-05T14:17:51;5.20;;;3.50;;
291;SDS011;23311;48.776;9.162;2023-02-05T14:20:33;3.00;;;2.40;;
291;SDS011;23311;48.776;9.162;2023-02-05T14:23:11;3.43;;;2.83;;
291;SDS011;23311;48.776;9.162;2023-02-05T14:26:05;3.30;;;2.73;;
291;SDS011;23311;48.776;9.162;2023-02-05T14:28:47;3.10;;;2.90;;
291;SDS011;23311;48.776;9.162;2023-02-05T14:34:42;5.33;;;3.10;;
291;SDS011;23311;48.776;9.162;2023-02-05T14:37:29;4.20;;;3.33;;
291;SDS011;23311;48.776;9.162;2023-02-05T14:42:54;3.30;;;2.70;;
291;SDS011;23311;48.776;9.162;2023-02-05T14:45:39;4.10;;;2.83;;
291;SDS011;23311;48.776;9.162;2023-02-05T14:48:16;4.30;;;3.20;;
291;SDS011;23311;48.776;9.162;2023-02-05T14:51:00;4.90;;;3.30;;
291;SDS011;23311;48.776;9.162;2023-02-05T14:53:30;3.93;;;2.93;;
291;SDS011;23311;48.776;9.162;2023-02-05T14:56:00;3.20;;;2.50;;
291;SDS011;23311;48.776;9.162;2023-02-05T14:58:29;4.20;;;2.90;;
291;SDS011;23311;48.776;9.162;2023-02-05T15:04:21;4.00;;;2.80;;
291;SDS011;23311;48.776;9.162;2023-02-05T15:07:11;4.53;;;3.20;;
291;SDS011;23311;48.776;9.162;2023-02-05T15:09:42;4.03;;;3.20;;
291;SDS011;23311;48.776;9.162;2023-02-05T15:15:23;3.10;;;2.40;;
291;SDS011;23311;48.776;9.162;2023-02-05T15:18:01;3.53;;;3.30;;
291;SDS011;23311;48.776;9.162;2023-02-05T15:20:44;5.27;;;3.10;;
291;SDS011;23311;48.776;9.162;2023-02-05T15:23:21;4.47;;;3.83;;
291;SDS011;23311;48.776;9.162;2023-02-05T15:25:57;5.77;;;3.10;;
291;SDS011;23311;48.776;9.162;2023-02-05T15:28:30;4.67;;;4.03;;
291;SDS011;23311;48.776;9.162;2023-02-05T15:31:03;4.47;;;3.40;;
291;SDS011;23311;48.776;9.162;2023-02-05T15:33:48;4.27;;;3.20;;
291;SDS011;23311;48.776;9.162;2023-02-05T15:36:24;5.40;;;3.63;;
291;SDS011;23311;48.776;9.162;2023-02-05T15:39:04;3.77;;;3.33;;
291;SDS011;23311;48.776;9.162;2023-02-05T15:41:39;4.00;;;3.70;;
291;SDS011;23311;48.776;9.162;2023-02-05T15:44:18;5.40;;;3.67;;
291;SDS011;23311;48.776;9.162;2023-02-05T15:46:48;4.17;;;3.60;;
291;SDS011;23311;48.776;9.162;2023-02-05T15:49:16;4.63;;;3.47;;
291;SDS011;23311;48.776;9.162;2023-02-05T15:51:46;4.33;;;4.03;;
291;SDS011;23311;48.776;9.162;2023-02-05T15:54:17;4.10;;;3.03;;
291;SDS011;23311;48.776;9.162;2023-02-05T15:56:48;4.57;;;3.87;;
291;SDS011;23311;48.776;9.162;2023-02-05T15:59:18;5.00;;;4.13;;
291;SDS011;23311;48.776;9.162;2023-02-05T16:01:51;4.30;;;3.63;;
291;SDS011;23311;48.776;9.162;2023-02-05T16:04:27;4.17;;;3.93;;
291;SDS011;23311;48.776;9.162;2023-02-05T16:06:57;5.00;;;4.13;;
291;SDS011;23311;48.776;9.162;2023-02-05T16:09:28;4.93;;;3.90;;
291;SDS011;23311;48.776;9.162;2023-02-05T16:12:08;5.70;;;4.00;;